createdAt,value
2017-07-20T00:00:16.913Z,99757.87
2017-07-20T00:02:44.418Z,99764.75
2017-07-20T00:05:11.845Z,99762.04
2017-07-20T00:07:39.280Z,99762.97
2017-07-20T00:10:07.077Z,99765.09
2017-07-20T00:12:34.532Z,99765.66
2017-07-20T00:15:01.964Z,99761.72
2017-07-20T00:17:29.632Z,99769.74
2017-07-20T00:19:57.041Z,99768.54
2017-07-20T00:22:24.463Z,99764.17
2017-07-20T00:24:52.246Z,99765.78
2017-07-20T00:27:19.662Z,99769.83
2017-07-20T00:29:47.087Z,99760.85
2017-07-20T00:32:14.665Z,99749.16
2017-07-20T00:34:42.086Z,99745.17
2017-07-20T00:37:09.546Z,99730.02
2017-07-20T00:39:37.208Z,99728.89
2017-07-20T00:42:04.636Z,99719.94
2017-07-20T00:44:32.063Z,99712.66
2017-07-20T00:46:59.537Z,99707.19
2017-07-20T00:49:26.946Z,99683.52
2017-07-20T00:51:54.383Z,99697.36
2017-07-20T00:54:21.841Z,99697.63
2017-07-20T00:56:49.286Z,99682.55
2017-07-20T00:59:16.741Z,99674.86
2017-07-20T01:01:44.248Z,99679.75
2017-07-20T01:04:11.692Z,99685.29
2017-07-20T01:06:39.150Z,99688.31
2017-07-20T01:09:07.092Z,99682.98
2017-07-20T01:11:34.510Z,99685.01
2017-07-20T01:14:01.946Z,99682.73
2017-07-20T01:16:29.682Z,99684.11
2017-07-20T01:18:57.163Z,99679.26
2017-07-20T01:21:24.581Z,99677.91
2017-07-20T01:23:52.134Z,99679.38
2017-07-20T01:26:19.562Z,99675.45
2017-07-20T01:28:46.978Z,99668.67
2017-07-20T01:31:14.455Z,99671.00
2017-07-20T01:33:41.871Z,99662.48
2017-07-20T01:36:09.310Z,99665.06
2017-07-20T01:38:36.782Z,99657.87
2017-07-20T01:41:04.198Z,99657.36
2017-07-20T01:43:31.618Z,99657.24
2017-07-20T01:45:59.094Z,99655.17
2017-07-20T01:48:26.543Z,99657.16
2017-07-20T01:50:53.960Z,99657.44
2017-07-20T01:53:21.475Z,99662.35
2017-07-20T01:55:48.906Z,99665.11
2017-07-20T01:58:16.327Z,99664.09
2017-07-20T02:00:43.792Z,99667.34
2017-07-20T02:03:11.286Z,99659.21
2017-07-20T02:05:38.717Z,99655.86
2017-07-20T02:08:06.274Z,99645.59
2017-07-20T02:10:33.743Z,99643.13
2017-07-20T02:13:01.175Z,99639.66
2017-07-20T02:15:28.620Z,99638.73
2017-07-20T02:17:56.054Z,99633.41
2017-07-20T02:20:23.489Z,99636.53
2017-07-20T02:22:51.060Z,99634.67
2017-07-20T02:25:18.500Z,99634.77
2017-07-20T02:27:45.935Z,99626.87
2017-07-20T02:30:13.529Z,99623.91
2017-07-20T02:32:40.947Z,99629.02
2017-07-20T02:35:08.383Z,99636.20
2017-07-20T02:37:35.956Z,99626.94
2017-07-20T02:40:03.364Z,99615.26
2017-07-20T02:42:30.790Z,99616.87
2017-07-20T02:44:58.327Z,99614.06
2017-07-20T02:47:25.782Z,99605.86
2017-07-20T02:49:53.213Z,99608.77
2017-07-20T02:52:20.888Z,99616.11
2017-07-20T02:54:48.350Z,99611.12
2017-07-20T02:57:15.779Z,99614.67
2017-07-20T02:59:43.663Z,99617.82
2017-07-20T03:02:11.078Z,99616.16
2017-07-20T03:04:38.502Z,99610.38
2017-07-20T03:07:05.974Z,99611.86
2017-07-20T03:09:33.391Z,99615.23
2017-07-20T03:12:00.813Z,99606.69
2017-07-20T03:14:28.535Z,99615.23
2017-07-20T03:16:55.976Z,99610.45
2017-07-20T03:19:23.383Z,99627.36
2017-07-20T03:21:50.806Z,99625.75
2017-07-20T03:24:18.243Z,99624.08
2017-07-20T03:26:45.663Z,99616.33
2017-07-20T03:29:13.098Z,99622.72
2017-07-20T03:31:40.515Z,99620.27
2017-07-20T03:34:07.995Z,99614.59
2017-07-20T03:36:35.458Z,99633.31
2017-07-20T03:39:02.907Z,99644.61
2017-07-20T03:41:30.318Z,99664.94
2017-07-20T03:43:57.783Z,99667.44
2017-07-20T03:46:25.226Z,99683.68
2017-07-20T03:48:52.646Z,99702.95
2017-07-20T03:51:20.484Z,99715.89
2017-07-20T03:53:47.915Z,99736.47
2017-07-20T03:56:15.318Z,99795.84
2017-07-20T03:58:42.763Z,99821.08
2017-07-20T04:01:10.167Z,99822.50
2017-07-20T04:03:37.590Z,99831.71
2017-07-20T04:06:05.418Z,99845.96
2017-07-20T04:08:32.832Z,99851.75
2017-07-20T04:11:00.248Z,99866.80
2017-07-20T04:13:27.670Z,99870.59
2017-07-20T04:15:56.110Z,99867.32
2017-07-20T04:18:23.521Z,99857.84
2017-07-20T04:20:50.956Z,99855.81
2017-07-20T04:23:18.364Z,99836.70
2017-07-20T04:25:45.775Z,99816.61
2017-07-20T04:28:13.350Z,99820.25
2017-07-20T04:30:40.761Z,99795.06
2017-07-20T04:33:08.170Z,99785.59
2017-07-20T04:35:35.754Z,99785.42
2017-07-20T04:38:03.167Z,99785.80
2017-07-20T04:40:30.578Z,99785.27
2017-07-20T04:42:58.019Z,99796.88
2017-07-20T04:45:25.430Z,99784.81
2017-07-20T04:47:52.838Z,99774.70
2017-07-20T04:50:20.417Z,99784.17
2017-07-20T04:52:47.834Z,99777.66
2017-07-20T04:55:15.246Z,99773.04
2017-07-20T04:57:42.723Z,99785.98
2017-07-20T05:00:10.146Z,99789.94
2017-07-20T05:02:37.554Z,99786.09
2017-07-20T05:05:05.082Z,99790.57
2017-07-20T05:07:32.492Z,99793.95
2017-07-20T05:10:00.422Z,99793.95
2017-07-20T05:12:27.943Z,99798.78
2017-07-20T05:14:55.392Z,99799.92
2017-07-20T05:17:22.805Z,99797.48
2017-07-20T05:19:50.263Z,99791.45
2017-07-20T05:22:17.689Z,99788.95
2017-07-20T05:24:57.776Z,99778.91
2017-07-20T05:27:28.794Z,99776.45
2017-07-20T05:29:56.202Z,99769.16
2017-07-20T05:32:23.755Z,99770.94
2017-07-20T05:34:52.291Z,99766.34
2017-07-20T05:37:19.706Z,99769.31
2017-07-20T05:39:47.287Z,99766.17
2017-07-20T05:42:14.716Z,99762.12
2017-07-20T05:44:42.518Z,99765.34
2017-07-20T05:47:16.243Z,99759.26
2017-07-20T05:49:43.658Z,99768.22
2017-07-20T05:52:11.066Z,99778.47
2017-07-20T05:54:42.009Z,99780.74
2017-07-20T05:57:09.432Z,99768.34
2017-07-20T05:59:36.858Z,99774.46
2017-07-20T06:02:04.306Z,99771.15
2017-07-20T06:04:31.713Z,99765.91
2017-07-20T06:06:59.129Z,99762.47
2017-07-20T06:09:35.147Z,99760.09
2017-07-20T06:12:02.607Z,99755.25
2017-07-20T06:14:30.035Z,99762.37
2017-07-20T06:16:57.472Z,99756.87
2017-07-20T06:19:24.882Z,99766.02
2017-07-20T06:21:52.301Z,99757.69
2017-07-20T06:24:20.083Z,99767.64
2017-07-20T06:26:47.732Z,99772.09
2017-07-20T06:29:15.167Z,99773.61
2017-07-20T06:31:42.800Z,99773.17
2017-07-20T06:34:10.206Z,99788.44
2017-07-20T06:36:37.613Z,99779.87
2017-07-20T06:39:05.151Z,99781.16
2017-07-20T06:41:32.558Z,99780.81
2017-07-20T06:44:00.031Z,99781.73
2017-07-20T06:46:27.590Z,99779.16
2017-07-20T06:48:55.007Z,99773.98
2017-07-20T06:51:22.414Z,99769.80
2017-07-20T06:53:51.012Z,99775.98
2017-07-20T06:56:19.238Z,99774.69
2017-07-20T06:58:48.350Z,99771.55
2017-07-20T07:01:16.646Z,99764.53
2017-07-20T07:03:44.507Z,99773.33
2017-07-20T07:06:11.931Z,99782.67
2017-07-20T07:08:43.235Z,99778.04
2017-07-20T07:11:10.647Z,99772.09
2017-07-20T07:13:38.077Z,99776.33
2017-07-20T07:16:05.525Z,99780.86
2017-07-20T07:18:32.938Z,99778.87
2017-07-20T07:21:00.368Z,99782.22
2017-07-20T07:23:27.800Z,99783.30
2017-07-20T07:25:55.213Z,99785.75
2017-07-20T07:28:22.670Z,99789.30
2017-07-20T07:30:50.237Z,99787.70
2017-07-20T07:33:17.651Z,99791.17
2017-07-20T07:35:45.062Z,99790.89
2017-07-20T07:38:12.836Z,99787.94
2017-07-20T07:40:40.254Z,99789.75
2017-07-20T07:43:07.667Z,99789.39
2017-07-20T07:45:35.098Z,99787.47
2017-07-20T07:48:02.516Z,99789.97
2017-07-20T07:50:29.948Z,99792.53
2017-07-20T07:52:57.402Z,99790.69
2017-07-20T07:55:24.813Z,99778.47
2017-07-20T07:57:52.246Z,99790.19
2017-07-20T08:00:19.805Z,99786.08
2017-07-20T08:02:47.234Z,99788.50
2017-07-20T08:05:14.664Z,99788.66
2017-07-20T08:07:42.114Z,99793.52
2017-07-20T08:10:09.530Z,99792.91
2017-07-20T08:12:36.945Z,99793.41
2017-07-20T08:15:04.707Z,99798.81
2017-07-20T08:17:32.117Z,99799.60
2017-07-20T08:19:59.546Z,99791.95
2017-07-20T08:22:27.146Z,99793.36
2017-07-20T08:24:54.554Z,99797.70
2017-07-20T08:27:21.992Z,99795.18
2017-07-20T08:29:49.435Z,99792.95
2017-07-20T08:32:16.855Z,99791.20
2017-07-20T08:34:44.283Z,99796.80
2017-07-20T08:37:11.746Z,99788.09
2017-07-20T08:39:39.196Z,99795.18
2017-07-20T08:42:06.599Z,99793.78
2017-07-20T08:44:34.193Z,99794.41
2017-07-20T08:47:01.596Z,99794.84
2017-07-20T08:49:29.006Z,99788.11
2017-07-20T08:51:56.787Z,99803.23
2017-07-20T08:54:24.621Z,99796.18
2017-07-20T08:56:52.071Z,99796.92
2017-07-20T08:59:19.670Z,99792.12
2017-07-20T09:01:47.098Z,99792.41
2017-07-20T09:04:14.523Z,99791.36
2017-07-20T09:06:41.954Z,99789.53
2017-07-20T09:09:09.394Z,99786.91
2017-07-20T09:11:36.806Z,99779.91
2017-07-20T09:14:04.338Z,99772.36
2017-07-20T09:16:31.766Z,99771.81
2017-07-20T09:18:59.196Z,99775.56
2017-07-20T09:21:26.738Z,99777.34
2017-07-20T09:23:54.158Z,99788.67
2017-07-20T09:26:21.570Z,99780.30
2017-07-20T09:28:49.233Z,99776.48
2017-07-20T09:31:16.657Z,99778.70
2017-07-20T09:33:44.106Z,99778.36
2017-07-20T09:36:11.635Z,99784.01
2017-07-20T09:38:39.071Z,99784.41
2017-07-20T09:41:06.521Z,99783.59
2017-07-20T09:43:33.983Z,99780.77
2017-07-20T09:46:01.413Z,99782.84
2017-07-20T09:48:28.838Z,99779.49
2017-07-20T09:50:56.359Z,99777.38
2017-07-20T09:53:23.786Z,99790.59
2017-07-20T09:55:51.234Z,99783.39
2017-07-20T09:58:18.929Z,99783.64
2017-07-20T10:00:46.376Z,99786.16
2017-07-20T10:03:13.794Z,99784.57
2017-07-20T10:05:41.234Z,99787.52
2017-07-20T10:08:08.950Z,99786.14
2017-07-20T10:10:36.406Z,99781.91
2017-07-20T10:13:04.178Z,99778.92
2017-07-20T10:15:32.486Z,99771.16
2017-07-20T10:17:59.951Z,99775.05
2017-07-20T10:20:27.712Z,99783.33
2017-07-20T10:22:55.126Z,99778.70
2017-07-20T10:25:22.544Z,99775.78
2017-07-20T10:27:50.159Z,99780.19
2017-07-20T10:30:17.574Z,99782.99
2017-07-20T10:32:44.989Z,99783.92
2017-07-20T10:35:12.503Z,99790.41
2017-07-20T10:37:39.914Z,99788.06
2017-07-20T10:40:07.330Z,99789.18
2017-07-20T10:42:35.002Z,99788.62
2017-07-20T10:45:02.435Z,99780.22
2017-07-20T10:47:29.843Z,99781.59
2017-07-20T10:49:57.443Z,99787.98
2017-07-20T10:52:24.852Z,99778.42
2017-07-20T10:54:52.270Z,99779.45
2017-07-20T10:57:19.984Z,99780.01
2017-07-20T10:59:47.393Z,99781.84
2017-07-20T11:02:14.836Z,99776.42
2017-07-20T11:04:42.403Z,99782.46
2017-07-20T11:07:09.810Z,99773.80
2017-07-20T11:09:37.230Z,99772.44
2017-07-20T11:12:04.924Z,99776.23
2017-07-20T11:14:32.342Z,99773.25
2017-07-20T11:16:59.746Z,99776.89
2017-07-20T11:19:27.180Z,99778.71
2017-07-20T11:21:54.597Z,99777.23
2017-07-20T11:24:22.002Z,99782.93
2017-07-20T11:26:49.522Z,99764.94
2017-07-20T11:29:16.927Z,99760.84
2017-07-20T11:31:44.351Z,99751.71
2017-07-20T11:34:11.829Z,99756.23
2017-07-20T11:36:39.223Z,99751.55
2017-07-20T11:39:06.642Z,99750.13
2017-07-20T11:41:34.173Z,99764.77
2017-07-20T11:44:01.577Z,99745.06
2017-07-20T11:46:28.979Z,99763.32
2017-07-20T11:48:56.427Z,99768.01
2017-07-20T11:51:23.947Z,99771.70
2017-07-20T11:53:51.378Z,99763.01
2017-07-20T11:56:20.046Z,99760.52
2017-07-20T11:58:47.446Z,99761.09
2017-07-20T12:01:14.939Z,99757.60
2017-07-20T12:03:42.637Z,99758.44
2017-07-20T12:06:10.177Z,99751.34
2017-07-20T12:08:37.603Z,99754.67
2017-07-20T12:11:05.122Z,99753.34
2017-07-20T12:13:39.716Z,99753.64
2017-07-20T12:16:07.669Z,99746.12
2017-07-20T12:18:35.098Z,99740.13
2017-07-20T12:21:02.498Z,99743.30
2017-07-20T12:23:30.067Z,99742.58
2017-07-20T12:25:57.478Z,99750.86
2017-07-20T12:28:24.890Z,99742.84
2017-07-20T12:30:52.550Z,99746.02
2017-07-20T12:33:19.962Z,99748.92
2017-07-20T12:35:47.379Z,99751.44
2017-07-20T12:38:14.840Z,99746.64
2017-07-20T12:40:42.247Z,99742.89
2017-07-20T12:43:09.673Z,99747.01
2017-07-20T12:45:37.191Z,99760.94
2017-07-20T12:48:04.602Z,99759.10
2017-07-20T12:50:32.003Z,99766.01
2017-07-20T12:52:59.534Z,99747.64
2017-07-20T12:55:26.943Z,99754.54
2017-07-20T12:57:54.359Z,99757.61
2017-07-20T13:00:21.882Z,99757.58
2017-07-20T13:02:49.286Z,99758.75
2017-07-20T13:05:17.375Z,99757.18
2017-07-20T13:07:44.905Z,99749.91
2017-07-20T13:10:12.343Z,99760.11
2017-07-20T13:12:39.752Z,99760.39
2017-07-20T13:15:07.191Z,99748.30
2017-07-20T13:17:34.622Z,99742.97
2017-07-20T13:20:02.015Z,99752.36
2017-07-20T13:22:29.470Z,99741.80
2017-07-20T13:24:56.882Z,99753.98
2017-07-20T13:27:24.295Z,99746.46
2017-07-20T13:29:51.856Z,99748.97
2017-07-20T13:32:19.292Z,99747.08
2017-07-20T13:34:46.690Z,99756.30
2017-07-20T13:37:14.118Z,99750.89
2017-07-20T13:39:41.524Z,99749.88
2017-07-20T13:42:08.947Z,99745.58
2017-07-20T13:44:36.686Z,99751.95
2017-07-20T13:47:04.086Z,99749.80
2017-07-20T13:49:31.494Z,99752.30
2017-07-20T13:51:59.242Z,99751.06
2017-07-20T13:54:26.666Z,99747.58
2017-07-20T13:56:54.069Z,99741.45
2017-07-20T13:59:21.518Z,99745.73
2017-07-20T14:01:48.946Z,99743.56
2017-07-20T14:04:16.350Z,99748.60
2017-07-20T14:06:43.766Z,99740.09
2017-07-20T14:09:11.167Z,99740.03
2017-07-20T14:11:38.595Z,99747.47
2017-07-20T14:14:06.390Z,99740.38
2017-07-20T14:16:33.803Z,99749.22
2017-07-20T14:19:01.227Z,99738.06
2017-07-20T14:21:28.967Z,99742.97
2017-07-20T14:23:56.423Z,99753.09
2017-07-20T14:26:23.838Z,99757.54
2017-07-20T14:28:51.278Z,99752.27
2017-07-20T14:31:18.693Z,99752.23
2017-07-20T14:33:46.099Z,99748.79
2017-07-20T14:36:13.666Z,99750.00
2017-07-20T14:38:41.088Z,99749.43
2017-07-20T14:41:08.487Z,99744.80
2017-07-20T14:43:36.046Z,99756.02
2017-07-20T14:46:03.463Z,99749.43
2017-07-20T14:48:30.862Z,99744.87
2017-07-20T14:50:58.656Z,99746.47
2017-07-20T14:53:26.083Z,99747.01
2017-07-20T14:55:53.507Z,99749.84
2017-07-20T14:58:21.442Z,99755.08
2017-07-20T15:00:48.895Z,99746.64
2017-07-20T15:03:16.315Z,99757.87
2017-07-20T15:05:43.878Z,99755.66
2017-07-20T15:08:11.282Z,99756.95
2017-07-20T15:10:38.689Z,99752.83
2017-07-20T15:13:06.123Z,99755.21
2017-07-20T15:15:33.522Z,99765.09
2017-07-20T15:18:00.929Z,99759.44
2017-07-20T15:20:28.360Z,99757.52
2017-07-20T15:22:55.774Z,99759.88
2017-07-20T15:25:23.192Z,99774.14
2017-07-20T15:27:50.706Z,99767.14
2017-07-20T15:30:18.113Z,99766.45
2017-07-20T15:32:45.506Z,99767.52
2017-07-20T15:35:13.298Z,99766.06
2017-07-20T15:37:40.738Z,99769.44
2017-07-20T15:40:08.178Z,99773.27
2017-07-20T15:42:35.759Z,99775.90
2017-07-20T15:45:03.157Z,99779.67
2017-07-20T15:47:30.562Z,99779.37
2017-07-20T15:49:57.994Z,99774.61
2017-07-20T15:52:25.389Z,99771.97
2017-07-20T15:54:52.794Z,99774.72
2017-07-20T15:57:20.243Z,99775.98
2017-07-20T15:59:47.646Z,99776.34
2017-07-20T16:02:15.045Z,99773.92
2017-07-20T16:04:42.479Z,99776.75
2017-07-20T16:07:09.909Z,99769.58
2017-07-20T16:09:37.332Z,99765.57
2017-07-20T16:12:05.176Z,99771.28
2017-07-20T16:14:32.587Z,99770.68
2017-07-20T16:17:00.003Z,99762.88
2017-07-20T16:19:27.527Z,99767.27
2017-07-20T16:21:54.942Z,99772.66
2017-07-20T16:24:22.341Z,99764.27
2017-07-20T16:26:49.798Z,99765.45
2017-07-20T16:29:17.212Z,99772.64
2017-07-20T16:31:44.623Z,99776.42
2017-07-20T16:34:12.331Z,99775.16
2017-07-20T16:36:39.758Z,99769.05
2017-07-20T16:39:08.577Z,99775.04
2017-07-20T16:41:36.158Z,99783.34
2017-07-20T16:44:03.582Z,99781.65
2017-07-20T16:46:30.991Z,99782.30
2017-07-20T16:48:58.591Z,99787.36
2017-07-20T16:51:26.299Z,99803.21
2017-07-20T16:53:54.426Z,99803.15
2017-07-20T16:56:24.910Z,99806.53
2017-07-20T16:58:53.982Z,99805.38
2017-07-20T17:01:25.543Z,99809.55
2017-07-20T17:03:53.564Z,99811.02
2017-07-20T17:06:20.966Z,99812.78
2017-07-20T17:08:48.547Z,99813.91
2017-07-20T17:11:16.611Z,99817.75
2017-07-20T17:13:44.018Z,99828.47
2017-07-20T17:16:12.606Z,99819.28
2017-07-20T17:18:41.118Z,99826.48
2017-07-20T17:21:08.841Z,99826.59
2017-07-20T17:23:36.867Z,99829.38
2017-07-20T17:26:04.270Z,99827.89
2017-07-20T17:28:31.682Z,99834.26
2017-07-20T17:30:59.133Z,99840.60
2017-07-20T17:33:26.546Z,99843.33
2017-07-20T17:35:53.946Z,99845.80
2017-07-20T17:38:21.519Z,99845.39
2017-07-20T17:40:48.928Z,99852.70
2017-07-20T17:43:16.337Z,99845.44
2017-07-20T17:45:43.946Z,99858.48
2017-07-20T17:48:11.343Z,99852.57
2017-07-20T17:50:38.763Z,99856.56
2017-07-20T17:53:06.480Z,99866.34
2017-07-20T17:55:33.886Z,99865.16
2017-07-20T17:58:01.315Z,99871.27
2017-07-20T18:00:28.845Z,99868.80
2017-07-20T18:02:56.272Z,99877.75
2017-07-20T18:05:23.691Z,99891.84
2017-07-20T18:07:51.247Z,99890.94
2017-07-20T18:10:18.699Z,99899.42
2017-07-20T18:12:46.158Z,99899.27
2017-07-20T18:15:13.614Z,99902.28
2017-07-20T18:17:41.033Z,99914.30
2017-07-20T18:20:08.434Z,99918.39
2017-07-20T18:22:35.998Z,99932.73
2017-07-20T18:25:03.410Z,99944.27
2017-07-20T18:27:30.821Z,99953.63
2017-07-20T18:29:59.357Z,99960.45
2017-07-20T18:32:26.798Z,99972.55
2017-07-20T18:34:54.231Z,99982.61
2017-07-20T18:37:21.799Z,99990.20
2017-07-20T18:39:49.237Z,99982.26
2017-07-20T18:42:16.652Z,99992.50
2017-07-20T18:44:45.043Z,99999.66
2017-07-20T18:47:12.520Z,100014.30
2017-07-20T18:49:39.919Z,100019.90
2017-07-20T18:52:08.029Z,100017.92
2017-07-20T18:54:35.471Z,100017.11
2017-07-20T18:57:02.883Z,100030.67
2017-07-20T18:59:30.338Z,100030.83
2017-07-20T19:01:57.771Z,100038.47
2017-07-20T19:04:25.191Z,100046.19
2017-07-20T19:06:52.658Z,100048.11
2017-07-20T19:09:20.082Z,100053.57
2017-07-20T19:11:47.518Z,100054.13
2017-07-20T19:14:14.993Z,100061.50
2017-07-20T19:16:42.393Z,100064.09
2017-07-20T19:19:09.882Z,100058.17
2017-07-20T19:21:37.459Z,100065.47
2017-07-20T19:24:04.874Z,100069.75
2017-07-20T19:26:32.285Z,100079.86
2017-07-20T19:28:59.986Z,100088.00
2017-07-20T19:31:27.412Z,100085.81
2017-07-20T19:33:57.459Z,100092.59
2017-07-20T19:36:25.138Z,100102.50
2017-07-20T19:38:52.588Z,100106.61
2017-07-20T19:41:19.998Z,100108.08
2017-07-20T19:43:47.570Z,100110.02
2017-07-20T19:46:14.979Z,100115.23
2017-07-20T19:48:42.385Z,100118.20
2017-07-20T19:51:09.855Z,100127.16
2017-07-20T19:53:37.287Z,100126.90
2017-07-20T19:56:04.700Z,100125.85
2017-07-20T19:58:32.135Z,100137.20
2017-07-20T20:00:59.534Z,100143.00
2017-07-20T20:03:26.954Z,100155.19
2017-07-20T20:05:54.419Z,100158.45
2017-07-20T20:08:21.824Z,100159.71
2017-07-20T20:10:49.259Z,100160.81
2017-07-20T20:13:16.826Z,100162.69
2017-07-20T20:15:44.259Z,100161.75
2017-07-20T20:18:11.694Z,100164.84
2017-07-20T20:20:39.478Z,100165.81
2017-07-20T20:23:06.898Z,100166.73
2017-07-20T20:25:35.230Z,100174.00
2017-07-20T20:28:02.690Z,100170.11
2017-07-20T20:30:30.106Z,100170.55
2017-07-20T20:32:57.530Z,100175.14
2017-07-20T20:35:25.643Z,100175.41
2017-07-20T20:37:53.049Z,100181.09
2017-07-20T20:40:20.454Z,100186.80
2017-07-20T20:42:49.878Z,100183.39
2017-07-20T20:45:17.754Z,100190.56
2017-07-20T20:47:45.161Z,100200.88
2017-07-20T20:50:12.703Z,100195.75
2017-07-20T20:52:40.131Z,100199.84
2017-07-20T20:55:07.536Z,100201.72
2017-07-20T20:57:35.125Z,100200.52
2017-07-20T21:00:02.534Z,100209.70
2017-07-20T21:02:29.959Z,100206.44
2017-07-20T21:04:57.678Z,100211.84
2017-07-20T21:07:25.095Z,100213.06
2017-07-20T21:09:52.502Z,100215.38
2017-07-20T21:12:20.090Z,100205.12
2017-07-20T21:14:47.507Z,100207.03
2017-07-20T21:17:14.909Z,100206.90
2017-07-20T21:19:42.507Z,100210.53
2017-07-20T21:22:09.922Z,100204.73
2017-07-20T21:24:37.331Z,100210.68
2017-07-20T21:27:04.818Z,100222.61
2017-07-20T21:29:32.237Z,100213.27
2017-07-20T21:31:59.686Z,100216.52
2017-07-20T21:34:27.302Z,100219.23
2017-07-20T21:36:54.729Z,100214.89
2017-07-20T21:39:22.164Z,100225.16
2017-07-20T21:41:49.762Z,100227.61
2017-07-20T21:44:17.212Z,100221.94
2017-07-20T21:46:44.626Z,100223.15
2017-07-20T21:49:12.098Z,100229.38
2017-07-20T21:51:39.578Z,100233.44
2017-07-20T21:54:06.992Z,100232.08
2017-07-20T21:56:34.470Z,100236.26
2017-07-20T21:59:01.934Z,100240.06
2017-07-20T22:01:29.374Z,100245.05
2017-07-20T22:03:56.845Z,100248.18
2017-07-20T22:06:24.255Z,100244.92
2017-07-20T22:08:51.672Z,100238.30
2017-07-20T22:11:19.214Z,100247.34
2017-07-20T22:13:46.635Z,100248.31
2017-07-20T22:16:14.050Z,100250.19
2017-07-20T22:18:41.821Z,100244.80
2017-07-20T22:21:09.251Z,100250.47
2017-07-20T22:23:36.676Z,100253.70
2017-07-20T22:26:04.149Z,100255.34
2017-07-20T22:28:31.566Z,100256.30
2017-07-20T22:30:59.011Z,100256.81
2017-07-20T22:33:26.601Z,100260.21
2017-07-20T22:35:54.082Z,100259.95
2017-07-20T22:38:21.515Z,100260.34
2017-07-20T22:40:49.154Z,100262.77
2017-07-20T22:43:16.602Z,100266.23
2017-07-20T22:45:44.007Z,100267.84
2017-07-20T22:48:11.622Z,100271.73
2017-07-20T22:50:39.051Z,100270.65
2017-07-20T22:53:06.477Z,100270.26
2017-07-20T22:55:34.059Z,100269.86
2017-07-20T22:58:01.471Z,100273.36
2017-07-20T23:00:28.890Z,100275.79
2017-07-20T23:02:56.470Z,100279.30
2017-07-20T23:05:23.894Z,100272.53
2017-07-20T23:07:51.368Z,100267.37
2017-07-20T23:10:18.970Z,100267.87
2017-07-20T23:12:46.402Z,100273.80
2017-07-20T23:15:13.818Z,100273.95
2017-07-20T23:17:41.623Z,100274.75
2017-07-20T23:20:09.062Z,100266.06
2017-07-20T23:22:36.482Z,100265.36
2017-07-20T23:25:03.925Z,100267.66
2017-07-20T23:27:31.354Z,100261.05
2017-07-20T23:29:58.787Z,100261.83
2017-07-20T23:32:26.598Z,100266.20
2017-07-20T23:34:54.030Z,100262.78
2017-07-20T23:37:21.462Z,100261.45
2017-07-20T23:39:49.050Z,100259.42
2017-07-20T23:42:16.471Z,100262.35
2017-07-20T23:44:43.883Z,100263.80
2017-07-20T23:47:11.494Z,100260.11
2017-07-20T23:49:38.919Z,100264.83
2017-07-20T23:52:06.331Z,100267.64
2017-07-20T23:54:33.772Z,100266.78
2017-07-20T23:57:01.214Z,100262.97
2017-07-20T23:59:28.634Z,100266.10
